sensor_id;sensor_type;location;lat;lon;timestamp;pressure;altitude;pressure_sealevel;temperature;humidity
13011;BME280;6786;57.632;11.962;2023-03-16T00:00:07;100930.22;;;18.26;35.56
13011;BME280;6786;57.632;11.962;2023-03-16T00:02:40;100928.53;;;18.25;35.43
13011;BME280;6786;57.632;11.962;2023-03-16T00:05:10;100928.78;;;18.22;35.56
13011;BME280;6786;57.632;11.962;2023-03-16T00:07:40;100926.84;;;18.24;35.49
13011;BME280;6786;57.632;11.962;2023-03-16T00:10:10;100938.25;;;18.26;35.51
13011;BME280;6786;57.632;11.962;2023-03-16T00:12:39;100761.97;;;17.15;35.48
13011;BME280;6786;57.632;11.962;2023-03-16T00:15:10;100779.94;;;17.24;35.48
13011;BME280;6786;57.632;11.962;2023-03-16T00:17:38;100854.50;;;17.72;35.48
13011;BME280;6786;57.632;11.962;2023-03-16T00:20:09;100948.25;;;18.24;35.32
13011;BME280;6786;57.632;11.962;2023-03-16T00:22:37;100950.19;;;18.22;35.40
13011;BME280;6786;57.632;11.962;2023-03-16T00:25:07;100955.53;;;18.22;35.45
13011;BME280;6786;57.632;11.962;2023-03-16T00:27:35;100963.31;;;18.25;35.44
13011;BME280;6786;57.632;11.962;2023-03-16T00:30:04;100967.69;;;18.26;35.42
13011;BME280;6786;57.632;11.962;2023-03-16T00:32:34;100962.47;;;18.24;35.34
13011;BME280;6786;57.632;11.962;2023-03-16T00:35:04;100878.06;;;17.67;35.44
13011;BME280;6786;57.632;11.962;2023-03-16T00:37:36;100978.38;;;18.26;35.34
13011;BME280;6786;57.632;11.962;2023-03-16T00:40:07;100982.03;;;18.25;35.45
13011;BME280;6786;57.632;11.962;2023-03-16T00:42:37;100880.84;;;17.65;35.56
13011;BME280;6786;57.632;11.962;2023-03-16T00:45:06;100977.56;;;18.25;35.33
13011;BME280;6786;57.632;11.962;2023-03-16T00:47:34;100987.41;;;18.25;35.29
13011;BME280;6786;57.632;11.962;2023-03-16T00:50:03;100992.75;;;18.25;35.36
13011;BME280;6786;57.632;11.962;2023-03-16T00:52:31;100852.53;;;17.29;35.21
13011;BME280;6786;57.632;11.962;2023-03-16T00:55:02;100999.09;;;18.24;35.33
13011;BME280;6786;57.632;11.962;2023-03-16T00:57:30;100994.69;;;18.23;35.22
13011;BME280;6786;57.632;11.962;2023-03-16T00:59:59;100996.41;;;18.24;35.38
13011;BME280;6786;57.632;11.962;2023-03-16T01:02:31;101006.38;;;18.22;35.29
13011;BME280;6786;57.632;11.962;2023-03-16T01:05:03;100907.22;;;17.58;35.37
13011;BME280;6786;57.632;11.962;2023-03-16T01:07:31;101015.25;;;18.22;35.24
13011;BME280;6786;57.632;11.962;2023-03-16T01:10:04;101025.09;;;18.22;35.29
13011;BME280;6786;57.632;11.962;2023-03-16T01:12:32;100924.72;;;17.63;35.27
13011;BME280;6786;57.632;11.962;2023-03-16T01:15:00;101030.44;;;18.22;35.21
13011;BME280;6786;57.632;11.962;2023-03-16T01:17:29;101030.44;;;18.22;35.36
13011;BME280;6786;57.632;11.962;2023-03-16T01:20:01;101033.00;;;18.23;35.16
13011;BME280;6786;57.632;11.962;2023-03-16T01:22:33;101034.09;;;18.21;35.25
13011;BME280;6786;57.632;11.962;2023-03-16T01:25:03;101030.44;;;18.22;35.31
13011;BME280;6786;57.632;11.962;2023-03-16T01:27:32;101035.81;;;18.22;35.19
13011;BME280;6786;57.632;11.962;2023-03-16T01:30:00;101037.50;;;18.23;35.09
13011;BME280;6786;57.632;11.962;2023-03-16T01:32:28;101035.81;;;18.22;35.22
13011;BME280;6786;57.632;11.962;2023-03-16T01:34:56;101042.25;;;18.19;35.19
13011;BME280;6786;57.632;11.962;2023-03-16T01:37:24;101036.66;;;18.22;35.19
13011;BME280;6786;57.632;11.962;2023-03-16T01:39:52;101040.16;;;18.23;35.27
13011;BME280;6786;57.632;11.962;2023-03-16T01:42:22;101040.16;;;18.23;35.12
13011;BME280;6786;57.632;11.962;2023-03-16T01:44:52;100979.41;;;17.81;35.07
13011;BME280;6786;57.632;11.962;2023-03-16T01:47:21;101032.66;;;18.17;35.21
13011;BME280;6786;57.632;11.962;2023-03-16T01:49:51;101055.28;;;18.24;35.14
13011;BME280;6786;57.632;11.962;2023-03-16T01:52:24;101053.53;;;18.23;35.20
13011;BME280;6786;57.632;11.962;2023-03-16T01:54:56;101050.16;;;18.21;35.14
13011;BME280;6786;57.632;11.962;2023-03-16T01:57:30;100973.78;;;17.73;35.15
13011;BME280;6786;57.632;11.962;2023-03-16T02:00:05;101054.53;;;18.22;35.08
13011;BME280;6786;57.632;11.962;2023-03-16T02:02:39;101057.19;;;18.22;35.19
13011;BME280;6786;57.632;11.962;2023-03-16T02:05:13;101057.19;;;18.22;35.12
13011;BME280;6786;57.632;11.962;2023-03-16T02:07:45;101062.56;;;18.22;35.00
13011;BME280;6786;57.632;11.962;2023-03-16T02:10:17;101061.84;;;18.20;35.10
13011;BME280;6786;57.632;11.962;2023-03-16T02:12:47;101065.22;;;18.22;35.03
13011;BME280;6786;57.632;11.962;2023-03-16T02:15:15;101067.91;;;18.22;35.01
13011;BME280;6786;57.632;11.962;2023-03-16T02:17:44;100964.81;;;17.63;35.05
13011;BME280;6786;57.632;11.962;2023-03-16T02:20:24;101069.88;;;18.20;35.03
13011;BME280;6786;57.632;11.962;2023-03-16T02:22:57;101078.59;;;18.22;34.94
13011;BME280;6786;57.632;11.962;2023-03-16T02:25:30;101078.59;;;18.22;34.92
13011;BME280;6786;57.632;11.962;2023-03-16T02:28:09;101089.31;;;18.22;35.09
13011;BME280;6786;57.632;11.962;2023-03-16T02:30:40;101094.66;;;18.22;35.02
13011;BME280;6786;57.632;11.962;2023-03-16T02:33:09;101098.31;;;18.21;34.90
13011;BME280;6786;57.632;11.962;2023-03-16T02:35:38;101104.50;;;18.21;34.92
13011;BME280;6786;57.632;11.962;2023-03-16T02:38:07;101001.47;;;17.60;34.96
13011;BME280;6786;57.632;11.962;2023-03-16T02:40:36;101101.97;;;18.20;35.01
13011;BME280;6786;57.632;11.962;2023-03-16T02:43:07;101103.66;;;18.21;35.00
13011;BME280;6786;57.632;11.962;2023-03-16T02:45:40;101100.25;;;18.19;34.86
13011;BME280;6786;57.632;11.962;2023-03-16T02:48:15;101105.34;;;18.22;34.92
13011;BME280;6786;57.632;11.962;2023-03-16T02:50:50;101090.03;;;18.13;34.98
13011;BME280;6786;57.632;11.962;2023-03-16T02:53:20;101118.97;;;18.19;34.88
13011;BME280;6786;57.632;11.962;2023-03-16T02:55:48;101017.66;;;17.70;34.73
13011;BME280;6786;57.632;11.962;2023-03-16T02:58:16;101104.50;;;18.21;34.90
13011;BME280;6786;57.632;11.962;2023-03-16T03:00:46;101114.38;;;18.21;34.98
13011;BME280;6786;57.632;11.962;2023-03-16T03:03:14;101114.38;;;18.21;34.74
13011;BME280;6786;57.632;11.962;2023-03-16T03:05:42;101118.72;;;18.22;34.98
13011;BME280;6786;57.632;11.962;2023-03-16T03:08:11;101113.50;;;18.20;34.81
13011;BME280;6786;57.632;11.962;2023-03-16T03:10:39;101123.38;;;18.20;35.00
13011;BME280;6786;57.632;11.962;2023-03-16T03:13:07;101114.38;;;18.21;34.63
13011;BME280;6786;57.632;11.962;2023-03-16T03:15:35;101036.97;;;17.63;34.94
13011;BME280;6786;57.632;11.962;2023-03-16T03:18:05;101125.06;;;18.21;34.75
13011;BME280;6786;57.632;11.962;2023-03-16T03:20:33;101125.06;;;18.21;34.76
13011;BME280;6786;57.632;11.962;2023-03-16T03:23:02;101038.44;;;17.67;34.67
13011;BME280;6786;57.632;11.962;2023-03-16T03:25:31;101129.44;;;18.22;34.82
13011;BME280;6786;57.632;11.962;2023-03-16T03:28:02;101134.06;;;18.20;34.77
13011;BME280;6786;57.632;11.962;2023-03-16T03:30:31;101138.44;;;18.21;34.81
13011;BME280;6786;57.632;11.962;2023-03-16T03:33:00;101141.13;;;18.21;34.78
13011;BME280;6786;57.632;11.962;2023-03-16T03:35:30;100988.63;;;17.31;34.63
13011;BME280;6786;57.632;11.962;2023-03-16T03:37:58;101138.44;;;18.21;34.70
13011;BME280;6786;57.632;11.962;2023-03-16T03:40:27;101130.41;;;18.21;34.66
13011;BME280;6786;57.632;11.962;2023-03-16T03:42:55;101014.25;;;17.33;34.84
13011;BME280;6786;57.632;11.962;2023-03-16T03:45:24;101137.69;;;18.19;34.68
13011;BME280;6786;57.632;11.962;2023-03-16T03:47:52;101136.00;;;18.18;34.82
13011;BME280;6786;57.632;11.962;2023-03-16T03:50:21;101079.78;;;17.85;34.71
13011;BME280;6786;57.632;11.962;2023-03-16T03:52:51;101143.06;;;18.19;34.76
13011;BME280;6786;57.632;11.962;2023-03-16T03:55:20;101145.72;;;18.19;34.59
13011;BME280;6786;57.632;11.962;2023-03-16T03:57:48;101139.44;;;18.20;34.63
13011;BME280;6786;57.632;11.962;2023-03-16T04:00:17;101143.91;;;18.19;34.63
13011;BME280;6786;57.632;11.962;2023-03-16T04:02:46;101155.47;;;18.20;34.73
13011;BME280;6786;57.632;11.962;2023-03-16T04:05:15;101167.88;;;18.21;34.55
13011;BME280;6786;57.632;11.962;2023-03-16T04:07:43;101157.19;;;18.21;34.59
13011;BME280;6786;57.632;11.962;2023-03-16T04:10:13;101151.81;;;18.21;34.54
13011;BME280;6786;57.632;11.962;2023-03-16T04:12:41;101160.56;;;18.23;34.61
13011;BME280;6786;57.632;11.962;2023-03-16T04:15:10;101160.56;;;18.23;34.69
13011;BME280;6786;57.632;11.962;2023-03-16T04:17:38;101158.88;;;18.22;34.58
13011;BME280;6786;57.632;11.962;2023-03-16T04:20:08;101167.88;;;18.21;34.55
13011;BME280;6786;57.632;11.962;2023-03-16T04:22:40;101162.75;;;18.18;34.50
13011;BME280;6786;57.632;11.962;2023-03-16T04:25:09;101171.53;;;18.20;34.51
13011;BME280;6786;57.632;11.962;2023-03-16T04:27:40;101172.38;;;18.20;34.62
13011;BME280;6786;57.632;11.962;2023-03-16T04:30:11;101172.25;;;18.22;34.57
13011;BME280;6786;57.632;11.962;2023-03-16T04:32:40;101174.06;;;18.21;34.63
13011;BME280;6786;57.632;11.962;2023-03-16T04:35:08;101086.53;;;17.67;34.70
13011;BME280;6786;57.632;11.962;2023-03-16T04:37:37;101176.88;;;18.20;34.67
13011;BME280;6786;57.632;11.962;2023-03-16T04:40:06;101175.91;;;18.21;34.54
13011;BME280;6786;57.632;11.962;2023-03-16T04:42:44;101055.88;;;17.48;34.73
13011;BME280;6786;57.632;11.962;2023-03-16T04:45:14;101179.56;;;18.20;34.47
13011;BME280;6786;57.632;11.962;2023-03-16T04:47:43;101099.44;;;17.62;34.62
13011;BME280;6786;57.632;11.962;2023-03-16T04:50:11;101183.19;;;18.19;34.50
13011;BME280;6786;57.632;11.962;2023-03-16T04:52:40;101106.22;;;17.66;34.47
13011;BME280;6786;57.632;11.962;2023-03-16T04:55:08;101075.31;;;17.50;34.54
13011;BME280;6786;57.632;11.962;2023-03-16T04:57:37;101199.97;;;18.21;34.76
13011;BME280;6786;57.632;11.962;2023-03-16T05:00:08;101192.94;;;18.20;34.45
13011;BME280;6786;57.632;11.962;2023-03-16T05:02:40;101196.31;;;18.22;34.38
13011;BME280;6786;57.632;11.962;2023-03-16T05:05:09;101200.09;;;18.19;34.53
13011;BME280;6786;57.632;11.962;2023-03-16T05:07:37;101212.38;;;18.22;34.66
13011;BME280;6786;57.632;11.962;2023-03-16T05:10:08;101214.06;;;18.23;34.52
13011;BME280;6786;57.632;11.962;2023-03-16T05:12:36;101214.06;;;18.23;34.57
13011;BME280;6786;57.632;11.962;2023-03-16T05:15:07;101028.28;;;17.13;34.60
13011;BME280;6786;57.632;11.962;2023-03-16T05:17:35;101218.59;;;18.22;34.44
13011;BME280;6786;57.632;11.962;2023-03-16T05:20:05;101223.06;;;18.22;34.38
13011;BME280;6786;57.632;11.962;2023-03-16T05:22:34;101226.72;;;18.21;34.45
13011;BME280;6786;57.632;11.962;2023-03-16T05:25:02;101147.06;;;17.68;34.58
13011;BME280;6786;57.632;11.962;2023-03-16T05:27:31;101233.78;;;18.22;34.52
13011;BME280;6786;57.632;11.962;2023-03-16T05:29:59;101236.69;;;18.19;34.45
13011;BME280;6786;57.632;11.962;2023-03-16T05:32:29;101241.81;;;18.22;34.49
13011;BME280;6786;57.632;11.962;2023-03-16T05:34:57;101249.84;;;18.22;34.40
13011;BME280;6786;57.632;11.962;2023-03-16T05:37:25;101244.47;;;18.22;34.40
13011;BME280;6786;57.632;11.962;2023-03-16T05:39:53;101254.19;;;18.23;34.40
13011;BME280;6786;57.632;11.962;2023-03-16T05:42:23;101249.84;;;18.22;34.39
13011;BME280;6786;57.632;11.962;2023-03-16T05:44:52;101253.50;;;18.21;34.51
13011;BME280;6786;57.632;11.962;2023-03-16T05:47:21;101244.94;;;18.16;34.40
13011;BME280;6786;57.632;11.962;2023-03-16T05:49:50;101266.88;;;18.21;34.52
13011;BME280;6786;57.632;11.962;2023-03-16T05:52:18;101272.09;;;18.22;34.36
13011;BME280;6786;57.632;11.962;2023-03-16T05:54:47;101276.59;;;18.22;34.37
13011;BME280;6786;57.632;11.962;2023-03-16T05:57:15;101274.91;;;18.21;34.69
13011;BME280;6786;57.632;11.962;2023-03-16T05:59:43;101272.22;;;18.21;34.34
13011;BME280;6786;57.632;11.962;2023-03-16T06:02:11;101271.97;;;18.24;34.40
13011;BME280;6786;57.632;11.962;2023-03-16T06:04:39;101280.00;;;18.24;34.21
13011;BME280;6786;57.632;11.962;2023-03-16T06:07:09;101285.38;;;18.24;34.41
13011;BME280;6786;57.632;11.962;2023-03-16T06:09:37;101280.00;;;18.24;34.40
13011;BME280;6786;57.632;11.962;2023-03-16T06:12:06;101280.25;;;18.21;34.32
13011;BME280;6786;57.632;11.962;2023-03-16T06:14:35;101283.63;;;18.23;34.38
13011;BME280;6786;57.632;11.962;2023-03-16T06:17:03;101274.91;;;18.21;34.35
13011;BME280;6786;57.632;11.962;2023-03-16T06:19:31;101277.34;;;18.24;34.38
13011;BME280;6786;57.632;11.962;2023-03-16T06:21:59;101278.41;;;18.21;34.49
13011;BME280;6786;57.632;11.962;2023-03-16T06:24:29;101287.06;;;18.25;34.42
13011;BME280;6786;57.632;11.962;2023-03-16T06:26:57;101276.59;;;18.22;34.39
13011;BME280;6786;57.632;11.962;2023-03-16T06:29:25;101280.84;;;18.24;34.41
13011;BME280;6786;57.632;11.962;2023-03-16T06:31:53;101180.66;;;17.59;34.39
13011;BME280;6786;57.632;11.962;2023-03-16T06:34:22;101291.78;;;18.21;34.40
13011;BME280;6786;57.632;11.962;2023-03-16T06:36:51;101214.50;;;17.71;34.25
13011;BME280;6786;57.632;11.962;2023-03-16T06:39:19;101230.19;;;17.76;34.41
13011;BME280;6786;57.632;11.962;2023-03-16T06:41:48;101298.22;;;18.19;34.36
13011;BME280;6786;57.632;11.962;2023-03-16T06:44:17;101298.09;;;18.20;34.38
13011;BME280;6786;57.632;11.962;2023-03-16T06:46:45;101211.69;;;17.62;34.26
13011;BME280;6786;57.632;11.962;2023-03-16T06:49:13;101189.91;;;17.55;34.41
13011;BME280;6786;57.632;11.962;2023-03-16T06:51:41;101210.38;;;17.67;34.15
13011;BME280;6786;57.632;11.962;2023-03-16T06:54:10;101307.81;;;18.21;34.28
13011;BME280;6786;57.632;11.962;2023-03-16T06:56:38;101304.31;;;18.21;34.49
13011;BME280;6786;57.632;11.962;2023-03-16T06:59:08;101307.00;;;18.21;34.33
13011;BME280;6786;57.632;11.962;2023-03-16T07:01:36;101324.75;;;18.22;34.17
13011;BME280;6786;57.632;11.962;2023-03-16T07:04:04;101315.03;;;18.21;34.23
13011;BME280;6786;57.632;11.962;2023-03-16T07:06:33;101317.69;;;18.21;34.22
13011;BME280;6786;57.632;11.962;2023-03-16T07:09:01;101326.72;;;18.20;34.28
13011;BME280;6786;57.632;11.962;2023-03-16T07:11:30;101328.41;;;18.21;34.49
13011;BME280;6786;57.632;11.962;2023-03-16T07:13:59;101317.94;;;18.18;34.30
13011;BME280;6786;57.632;11.962;2023-03-16T07:16:29;101218.31;;;17.56;34.35
13011;BME280;6786;57.632;11.962;2023-03-16T07:18:57;101332.06;;;18.20;34.25
13011;BME280;6786;57.632;11.962;2023-03-16T07:21:26;101325.84;;;18.19;34.19
13011;BME280;6786;57.632;11.962;2023-03-16T07:23:54;101320.09;;;18.13;34.19
13011;BME280;6786;57.632;11.962;2023-03-16T07:26:22;101337.41;;;18.20;34.19
13011;BME280;6786;57.632;11.962;2023-03-16T07:28:50;101337.41;;;18.20;34.30
13011;BME280;6786;57.632;11.962;2023-03-16T07:31:18;101342.75;;;18.20;34.14
13011;BME280;6786;57.632;11.962;2023-03-16T07:33:48;101345.44;;;18.20;34.31
13011;BME280;6786;57.632;11.962;2023-03-16T07:36:16;101346.50;;;18.17;34.31
13011;BME280;6786;57.632;11.962;2023-03-16T07:38:44;101357.09;;;18.19;34.18
13011;BME280;6786;57.632;11.962;2023-03-16T07:41:12;101348.09;;;18.20;34.18
13011;BME280;6786;57.632;11.962;2023-03-16T07:43:41;101357.94;;;18.19;34.23
13011;BME280;6786;57.632;11.962;2023-03-16T07:46:10;101359.75;;;18.19;34.14
13011;BME280;6786;57.632;11.962;2023-03-16T07:48:39;101366.84;;;18.20;34.29
13011;BME280;6786;57.632;11.962;2023-03-16T07:51:10;101360.75;;;18.18;34.10
13011;BME280;6786;57.632;11.962;2023-03-16T07:53:39;101363.41;;;18.18;34.14
13011;BME280;6786;57.632;11.962;2023-03-16T07:56:07;101178.28;;;17.07;34.20
13011;BME280;6786;57.632;11.962;2023-03-16T07:58:36;101371.44;;;18.18;34.14
13011;BME280;6786;57.632;11.962;2023-03-16T08:01:04;101366.09;;;18.18;34.07
13011;BME280;6786;57.632;11.962;2023-03-16T08:03:32;101363.28;;;18.19;34.31
13011;BME280;6786;57.632;11.962;2023-03-16T08:06:01;101374.88;;;18.20;34.09
13011;BME280;6786;57.632;11.962;2023-03-16T08:08:31;101375.69;;;18.20;34.18
13011;BME280;6786;57.632;11.962;2023-03-16T08:10:59;101355.84;;;18.12;34.12
13011;BME280;6786;57.632;11.962;2023-03-16T08:13:28;101374.88;;;18.20;34.01
13011;BME280;6786;57.632;11.962;2023-03-16T08:15:56;101372.19;;;18.20;34.03
13011;BME280;6786;57.632;11.962;2023-03-16T08:18:28;101380.22;;;18.20;34.18
13011;BME280;6786;57.632;11.962;2023-03-16T08:20:57;101380.22;;;18.20;33.89
13011;BME280;6786;57.632;11.962;2023-03-16T08:23:25;101385.56;;;18.20;34.13
13011;BME280;6786;57.632;11.962;2023-03-16T08:25:56;101379.34;;;18.19;34.07
13011;BME280;6786;57.632;11.962;2023-03-16T08:28:25;101381.16;;;18.19;34.11
13011;BME280;6786;57.632;11.962;2023-03-16T08:30:53;101388.34;;;18.18;34.11
13011;BME280;6786;57.632;11.962;2023-03-16T08:33:21;101395.50;;;18.18;34.10
13011;BME280;6786;57.632;11.962;2023-03-16T08:35:50;101388.25;;;18.20;33.99
13011;BME280;6786;57.632;11.962;2023-03-16T08:38:18;101385.69;;;18.18;34.05
13011;BME280;6786;57.632;11.962;2023-03-16T08:40:46;101286.75;;;17.58;34.00
13011;BME280;6786;57.632;11.962;2023-03-16T08:43:19;101392.84;;;18.18;34.15
13011;BME280;6786;57.632;11.962;2023-03-16T08:45:47;101311.84;;;17.69;34.03
13011;BME280;6786;57.632;11.962;2023-03-16T08:48:16;101393.81;;;18.17;34.17
13011;BME280;6786;57.632;11.962;2023-03-16T08:50:45;101399.88;;;18.19;33.97
13011;BME280;6786;57.632;11.962;2023-03-16T08:53:14;101313.03;;;17.65;34.05
13011;BME280;6786;57.632;11.962;2023-03-16T08:55:42;101398.19;;;18.18;33.96
13011;BME280;6786;57.632;11.962;2023-03-16T08:58:11;101412.31;;;18.20;33.95
13011;BME280;6786;57.632;11.962;2023-03-16T09:00:41;101412.31;;;18.20;34.08
13011;BME280;6786;57.632;11.962;2023-03-16T09:03:12;101408.88;;;18.18;34.09
13011;BME280;6786;57.632;11.962;2023-03-16T09:05:41;101413.25;;;18.19;34.11
13011;BME280;6786;57.632;11.962;2023-03-16T09:08:09;101312.50;;;17.59;33.91
13011;BME280;6786;57.632;11.962;2023-03-16T09:10:38;101397.78;;;18.11;34.02
13011;BME280;6786;57.632;11.962;2023-03-16T09:13:06;101417.66;;;18.20;33.99
13011;BME280;6786;57.632;11.962;2023-03-16T09:15:34;101423.03;;;18.20;34.00
13011;BME280;6786;57.632;11.962;2023-03-16T09:18:04;101328.84;;;17.68;34.14
13011;BME280;6786;57.632;11.962;2023-03-16T09:20:32;101415.84;;;18.20;34.00
13011;BME280;6786;57.632;11.962;2023-03-16T09:23:01;101424.72;;;18.21;33.95
13011;BME280;6786;57.632;11.962;2023-03-16T09:25:30;101278.34;;;17.27;34.10
13011;BME280;6786;57.632;11.962;2023-03-16T09:27:59;101350.00;;;17.71;34.10
13011;BME280;6786;57.632;11.962;2023-03-16T09:30:27;101424.09;;;18.17;33.95
13011;BME280;6786;57.632;11.962;2023-03-16T09:32:55;101432.84;;;18.19;33.89
13011;BME280;6786;57.632;11.962;2023-03-16T09:35:25;101427.50;;;18.19;33.95
13011;BME280;6786;57.632;11.962;2023-03-16T09:37:54;101435.41;;;18.21;34.01
13011;BME280;6786;57.632;11.962;2023-03-16T09:40:33;101433.72;;;18.20;33.98
13011;BME280;6786;57.632;11.962;2023-03-16T09:43:16;101432.00;;;18.19;33.68
13011;BME280;6786;57.632;11.962;2023-03-16T09:45:50;101439.06;;;18.20;33.96
13011;BME280;6786;57.632;11.962;2023-03-16T09:48:21;101438.31;;;18.18;34.00
13011;BME280;6786;57.632;11.962;2023-03-16T09:50:53;101254.78;;;17.08;33.94
13011;BME280;6786;57.632;11.962;2023-03-16T09:53:24;101442.69;;;18.19;34.02
13011;BME280;6786;57.632;11.962;2023-03-16T09:55:59;101439.06;;;18.20;33.90
13011;BME280;6786;57.632;11.962;2023-03-16T09:58:29;101355.59;;;17.68;33.93
13011;BME280;6786;57.632;11.962;2023-03-16T10:01:05;101450.84;;;18.17;33.87
13011;BME280;6786;57.632;11.962;2023-03-16T10:03:52;101443.69;;;18.18;33.66
13011;BME280;6786;57.632;11.962;2023-03-16T10:06:26;101453.41;;;18.19;33.85
13011;BME280;6786;57.632;11.962;2023-03-16T10:09:01;101458.75;;;18.19;33.88
13011;BME280;6786;57.632;11.962;2023-03-16T10:11:34;101359.63;;;17.60;33.86
13011;BME280;6786;57.632;11.962;2023-03-16T10:14:11;101457.06;;;18.18;33.77
13011;BME280;6786;57.632;11.962;2023-03-16T10:16:46;101449.03;;;18.18;33.85
13011;BME280;6786;57.632;11.962;2023-03-16T10:19:20;101458.75;;;18.19;34.05
13011;BME280;6786;57.632;11.962;2023-03-16T10:21:53;101459.72;;;18.18;33.96
13011;BME280;6786;57.632;11.962;2023-03-16T10:24:36;101444.66;;;18.17;33.72
13011;BME280;6786;57.632;11.962;2023-03-16T10:27:15;101447.22;;;18.18;33.91
13011;BME280;6786;57.632;11.962;2023-03-16T10:29:46;101453.41;;;18.19;33.96
13011;BME280;6786;57.632;11.962;2023-03-16T10:32:16;101456.06;;;18.19;33.86
13011;BME280;6786;57.632;11.962;2023-03-16T10:34:51;101450.94;;;18.16;33.94
13011;BME280;6786;57.632;11.962;2023-03-16T10:37:23;101457.28;;;18.15;33.87
13011;BME280;6786;57.632;11.962;2023-03-16T10:39:51;101452.56;;;18.18;33.83
13011;BME280;6786;57.632;11.962;2023-03-16T10:42:23;101458.75;;;18.19;33.76
13011;BME280;6786;57.632;11.962;2023-03-16T10:44:56;101462.41;;;18.18;33.68
13011;BME280;6786;57.632;11.962;2023-03-16T10:47:29;101266.31;;;17.09;33.90
13011;BME280;6786;57.632;11.962;2023-03-16T10:49:58;101449.03;;;18.18;33.78
13011;BME280;6786;57.632;11.962;2023-03-16T10:52:39;101441.00;;;18.18;33.92
13011;BME280;6786;57.632;11.962;2023-03-16T10:55:14;101442.91;;;18.16;33.85
13011;BME280;6786;57.632;11.962;2023-03-16T10:57:48;101449.03;;;18.18;33.76
13011;BME280;6786;57.632;11.962;2023-03-16T11:00:20;101355.59;;;17.68;33.69
13011;BME280;6786;57.632;11.962;2023-03-16T11:02:50;101438.31;;;18.18;33.74
13011;BME280;6786;57.632;11.962;2023-03-16T11:05:29;101437.34;;;18.19;33.63
13011;BME280;6786;57.632;11.962;2023-03-16T11:08:01;101446.34;;;18.18;33.65
13011;BME280;6786;57.632;11.962;2023-03-16T11:10:36;101433.94;;;18.17;33.68
13011;BME280;6786;57.632;11.962;2023-03-16T11:13:20;101455.34;;;18.17;33.80
13011;BME280;6786;57.632;11.962;2023-03-16T11:15:55;101438.00;;;18.10;33.56
13011;BME280;6786;57.632;11.962;2023-03-16T11:18:28;101446.34;;;18.18;33.76
13011;BME280;6786;57.632;11.962;2023-03-16T11:21:02;101436.09;;;18.12;33.75
13011;BME280;6786;57.632;11.962;2023-03-16T11:23:37;101439.31;;;18.17;33.62
13011;BME280;6786;57.632;11.962;2023-03-16T11:26:11;101323.31;;;17.45;33.72
13011;BME280;6786;57.632;11.962;2023-03-16T11:28:45;101435.66;;;18.18;33.67
13011;BME280;6786;57.632;11.962;2023-03-16T11:31:19;101259.38;;;17.06;33.81
13011;BME280;6786;57.632;11.962;2023-03-16T11:33:50;101434.78;;;18.17;33.64
13011;BME280;6786;57.632;11.962;2023-03-16T11:36:34;101441.00;;;18.18;33.51
13011;BME280;6786;57.632;11.962;2023-03-16T11:39:11;101448.28;;;18.16;33.70
13011;BME280;6786;57.632;11.962;2023-03-16T11:41:51;101352.16;;;17.66;33.60
13011;BME280;6786;57.632;11.962;2023-03-16T11:44:27;101433.94;;;18.17;33.69
13011;BME280;6786;57.632;11.962;2023-03-16T11:47:05;101435.66;;;18.18;33.64
13011;BME280;6786;57.632;11.962;2023-03-16T11:49:45;101425.94;;;18.17;33.48
13011;BME280;6786;57.632;11.962;2023-03-16T11:52:24;101433.94;;;18.17;33.45
13011;BME280;6786;57.632;11.962;2023-03-16T11:55:06;101421.53;;;18.16;33.57
13011;BME280;6786;57.632;11.962;2023-03-16T11:57:49;101430.31;;;18.18;33.52
13011;BME280;6786;57.632;11.962;2023-03-16T12:00:28;101421.53;;;18.16;33.59
13011;BME280;6786;57.632;11.962;2023-03-16T12:03:20;101415.22;;;18.17;33.34
13011;BME280;6786;57.632;11.962;2023-03-16T12:05:56;101260.75;;;17.24;33.37
13011;BME280;6786;57.632;11.962;2023-03-16T12:08:51;101417.91;;;18.17;33.23
13011;BME280;6786;57.632;11.962;2023-03-16T12:11:27;101407.19;;;18.17;33.53
13011;BME280;6786;57.632;11.962;2023-03-16T12:14:04;101354.88;;;17.77;33.52
13011;BME280;6786;57.632;11.962;2023-03-16T12:16:39;101410.81;;;18.16;33.53
13011;BME280;6786;57.632;11.962;2023-03-16T12:19:19;101393.50;;;18.09;33.46
13011;BME280;6786;57.632;11.962;2023-03-16T12:21:58;101213.13;;;17.06;33.32
13011;BME280;6786;57.632;11.962;2023-03-16T12:24:41;101394.75;;;18.16;33.16
13011;BME280;6786;57.632;11.962;2023-03-16T12:27:15;101383.78;;;18.08;33.44
13011;BME280;6786;57.632;11.962;2023-03-16T12:29:53;101397.44;;;18.16;33.38
13011;BME280;6786;57.632;11.962;2023-03-16T12:32:40;101394.03;;;18.14;33.45
13011;BME280;6786;57.632;11.962;2023-03-16T12:35:22;101396.50;;;18.17;33.42
13011;BME280;6786;57.632;11.962;2023-03-16T12:38:02;101303.16;;;17.65;33.34
13011;BME280;6786;57.632;11.962;2023-03-16T12:40:41;101378.72;;;18.16;33.48
13011;BME280;6786;57.632;11.962;2023-03-16T12:43:27;101380.44;;;18.17;33.22
13011;BME280;6786;57.632;11.962;2023-03-16T12:46:05;101373.47;;;18.14;33.53
13011;BME280;6786;57.632;11.962;2023-03-16T12:48:37;101369.75;;;18.17;33.52
13011;BME280;6786;57.632;11.962;2023-03-16T12:51:06;101361.72;;;18.17;33.42
13011;BME280;6786;57.632;11.962;2023-03-16T12:53:41;101361.72;;;18.17;33.31
13011;BME280;6786;57.632;11.962;2023-03-16T12:56:11;101352.81;;;18.16;33.38
13011;BME280;6786;57.632;11.962;2023-03-16T12:58:47;101367.06;;;18.17;33.21
13011;BME280;6786;57.632;11.962;2023-03-16T13:01:17;101360.75;;;18.18;33.51
13011;BME280;6786;57.632;11.962;2023-03-16T13:03:48;101366.09;;;18.18;33.47
13011;BME280;6786;57.632;11.962;2023-03-16T13:06:19;101369.75;;;18.17;33.44
13011;BME280;6786;57.632;11.962;2023-03-16T13:08:53;101355.63;;;18.15;33.54